sensor_id;sensor_type;location;lat;lon;timestamp;P1;durP1;ratioP1;P2;durP2;ratioP2
7410;SDS011;3747;48.628;9.058;2022-08-19T00:00:37;16.63;;;14.93;;
7410;SDS011;3747;48.628;9.058;2022-08-19T00:03:05;16.83;;;14.87;;
7410;SDS011;3747;48.628;9.058;2022-08-19T00:05:32;20.27;;;15.40;;
7410;SDS011;3747;48.628;9.058;2022-08-19T00:07:59;15.73;;;14.17;;
7410;SDS011;3747;48.628;9.058;2022-08-19T00:10:27;17.10;;;14.97;;
7410;SDS011;3747;48.628;9.058;2022-08-19T00:12:55;18.37;;;14.57;;
7410;SDS011;3747;48.628;9.058;2022-08-19T00:15:21;17.43;;;15.57;;
7410;SDS011;3747;48.628;9.058;2022-08-19T00:17:48;18.80;;;15.90;;
7410;SDS011;3747;48.628;9.058;2022-08-19T00:20:16;19.07;;;15.47;;
7410;SDS011;3747;48.628;9.058;2022-08-19T00:22:44;19.73;;;16.40;;
7410;SDS011;3747;48.628;9.058;2022-08-19T00:25:12;19.93;;;15.90;;
7410;SDS011;3747;48.628;9.058;2022-08-19T00:27:39;19.07;;;15.80;;
7410;SDS011;3747;48.628;9.058;2022-08-19T00:30:08;17.73;;;15.77;;
7410;SDS011;3747;48.628;9.058;2022-08-19T00:32:36;18.93;;;15.77;;
7410;SDS011;3747;48.628;9.058;2022-08-19T00:35:03;17.67;;;15.77;;
7410;SDS011;3747;48.628;9.058;2022-08-19T00:37:31;20.50;;;16.67;;
7410;SDS011;3747;48.628;9.058;2022-08-19T00:39:59;18.60;;;16.63;;
7410;SDS011;3747;48.628;9.058;2022-08-19T00:42:27;20.57;;;16.73;;
7410;SDS011;3747;48.628;9.058;2022-08-19T00:44:54;20.07;;;17.13;;
7410;SDS011;3747;48.628;9.058;2022-08-19T00:47:22;21.30;;;17.70;;
7410;SDS011;3747;48.628;9.058;2022-08-19T00:49:49;23.87;;;17.97;;
7410;SDS011;3747;48.628;9.058;2022-08-19T00:52:20;23.13;;;17.87;;
7410;SDS011;3747;48.628;9.058;2022-08-19T00:54:49;24.37;;;18.83;;
7410;SDS011;3747;48.628;9.058;2022-08-19T00:57:18;22.90;;;18.37;;
7410;SDS011;3747;48.628;9.058;2022-08-19T00:59:48;25.67;;;19.03;;
7410;SDS011;3747;48.628;9.058;2022-08-19T01:02:18;22.53;;;19.13;;
7410;SDS011;3747;48.628;9.058;2022-08-19T01:04:46;24.70;;;19.67;;
7410;SDS011;3747;48.628;9.058;2022-08-19T01:07:13;26.13;;;20.50;;
7410;SDS011;3747;48.628;9.058;2022-08-19T01:09:40;24.30;;;20.17;;
7410;SDS011;3747;48.628;9.058;2022-08-19T01:12:07;23.83;;;19.67;;
7410;SDS011;3747;48.628;9.058;2022-08-19T01:14:34;26.10;;;19.60;;
7410;SDS011;3747;48.628;9.058;2022-08-19T01:17:03;24.30;;;19.97;;
7410;SDS011;3747;48.628;9.058;2022-08-19T01:19:33;23.73;;;19.50;;
7410;SDS011;3747;48.628;9.058;2022-08-19T01:22:05;26.13;;;20.47;;
7410;SDS011;3747;48.628;9.058;2022-08-19T01:24:36;26.07;;;21.67;;
7410;SDS011;3747;48.628;9.058;2022-08-19T01:27:03;25.60;;;20.07;;
7410;SDS011;3747;48.628;9.058;2022-08-19T01:29:30;24.07;;;20.37;;
7410;SDS011;3747;48.628;9.058;2022-08-19T01:31:57;23.50;;;20.23;;
7410;SDS011;3747;48.628;9.058;2022-08-19T01:34:25;27.07;;;21.63;;
7410;SDS011;3747;48.628;9.058;2022-08-19T01:36:52;28.30;;;22.87;;
7410;SDS011;3747;48.628;9.058;2022-08-19T01:39:20;25.77;;;21.20;;
7410;SDS011;3747;48.628;9.058;2022-08-19T01:41:49;26.60;;;21.33;;
7410;SDS011;3747;48.628;9.058;2022-08-19T01:44:19;26.00;;;21.30;;
7410;SDS011;3747;48.628;9.058;2022-08-19T01:46:48;26.07;;;21.53;;
7410;SDS011;3747;48.628;9.058;2022-08-19T01:49:18;24.90;;;21.03;;
7410;SDS011;3747;48.628;9.058;2022-08-19T01:51:48;24.80;;;20.80;;
7410;SDS011;3747;48.628;9.058;2022-08-19T01:54:16;24.37;;;21.13;;
7410;SDS011;3747;48.628;9.058;2022-08-19T01:56:44;24.83;;;20.53;;
7410;SDS011;3747;48.628;9.058;2022-08-19T01:59:13;24.83;;;20.90;;
7410;SDS011;3747;48.628;9.058;2022-08-19T02:01:44;24.93;;;20.63;;
7410;SDS011;3747;48.628;9.058;2022-08-19T02:04:11;28.57;;;21.03;;
7410;SDS011;3747;48.628;9.058;2022-08-19T02:06:38;25.83;;;21.13;;
7410;SDS011;3747;48.628;9.058;2022-08-19T02:09:05;26.13;;;20.83;;
7410;SDS011;3747;48.628;9.058;2022-08-19T02:11:34;24.70;;;20.00;;
7410;SDS011;3747;48.628;9.058;2022-08-19T02:14:04;25.57;;;20.33;;
7410;SDS011;3747;48.628;9.058;2022-08-19T02:16:34;26.47;;;21.43;;
7410;SDS011;3747;48.628;9.058;2022-08-19T02:19:02;25.43;;;21.30;;
7410;SDS011;3747;48.628;9.058;2022-08-19T02:21:29;25.07;;;20.23;;
7410;SDS011;3747;48.628;9.058;2022-08-19T02:23:56;26.67;;;20.77;;
7410;SDS011;3747;48.628;9.058;2022-08-19T02:26:24;28.30;;;20.77;;
7410;SDS011;3747;48.628;9.058;2022-08-19T02:28:51;30.37;;;21.63;;
7410;SDS011;3747;48.628;9.058;2022-08-19T02:31:20;23.50;;;20.37;;
7410;SDS011;3747;48.628;9.058;2022-08-19T02:33:50;26.73;;;20.57;;
7410;SDS011;3747;48.628;9.058;2022-08-19T02:36:18;25.87;;;20.77;;
7410;SDS011;3747;48.628;9.058;2022-08-19T02:38:45;24.90;;;21.13;;
7410;SDS011;3747;48.628;9.058;2022-08-19T02:41:13;27.17;;;21.37;;
7410;SDS011;3747;48.628;9.058;2022-08-19T02:43:41;25.90;;;21.47;;
7410;SDS011;3747;48.628;9.058;2022-08-19T02:46:12;26.70;;;21.70;;
7410;SDS011;3747;48.628;9.058;2022-08-19T02:48:40;26.77;;;20.93;;
7410;SDS011;3747;48.628;9.058;2022-08-19T02:51:08;28.13;;;21.67;;
7410;SDS011;3747;48.628;9.058;2022-08-19T02:53:41;26.00;;;21.47;;
7410;SDS011;3747;48.628;9.058;2022-08-19T02:56:08;26.63;;;22.00;;
7410;SDS011;3747;48.628;9.058;2022-08-19T02:58:34;27.23;;;21.73;;
7410;SDS011;3747;48.628;9.058;2022-08-19T03:01:01;25.97;;;21.83;;
7410;SDS011;3747;48.628;9.058;2022-08-19T03:03:28;25.80;;;20.97;;
7410;SDS011;3747;48.628;9.058;2022-08-19T03:06:03;25.30;;;21.63;;
7410;SDS011;3747;48.628;9.058;2022-08-19T03:08:32;25.60;;;20.70;;
7410;SDS011;3747;48.628;9.058;2022-08-19T03:10:59;27.10;;;22.07;;
7410;SDS011;3747;48.628;9.058;2022-08-19T03:13:26;29.60;;;22.90;;
7410;SDS011;3747;48.628;9.058;2022-08-19T03:15:53;29.40;;;21.90;;
7410;SDS011;3747;48.628;9.058;2022-08-19T03:18:19;25.20;;;21.03;;
7410;SDS011;3747;48.628;9.058;2022-08-19T03:20:48;27.57;;;21.40;;
7410;SDS011;3747;48.628;9.058;2022-08-19T03:23:17;26.03;;;21.40;;
7410;SDS011;3747;48.628;9.058;2022-08-19T03:25:46;28.60;;;22.43;;
7410;SDS011;3747;48.628;9.058;2022-08-19T03:28:14;29.27;;;23.43;;
7410;SDS011;3747;48.628;9.058;2022-08-19T03:30:42;25.83;;;22.50;;
7410;SDS011;3747;48.628;9.058;2022-08-19T03:33:21;31.80;;;22.40;;
7410;SDS011;3747;48.628;9.058;2022-08-19T03:35:58;28.80;;;22.77;;
7410;SDS011;3747;48.628;9.058;2022-08-19T03:38:26;26.43;;;22.37;;
7410;SDS011;3747;48.628;9.058;2022-08-19T03:40:54;29.57;;;23.00;;
7410;SDS011;3747;48.628;9.058;2022-08-19T03:43:21;28.97;;;24.63;;
7410;SDS011;3747;48.628;9.058;2022-08-19T03:45:47;28.33;;;24.33;;
7410;SDS011;3747;48.628;9.058;2022-08-19T03:48:16;28.17;;;23.80;;
7410;SDS011;3747;48.628;9.058;2022-08-19T03:50:42;32.83;;;25.87;;
7410;SDS011;3747;48.628;9.058;2022-08-19T03:53:09;31.97;;;25.53;;
7410;SDS011;3747;48.628;9.058;2022-08-19T03:55:38;31.87;;;26.60;;
7410;SDS011;3747;48.628;9.058;2022-08-19T03:58:07;30.23;;;25.67;;
7410;SDS011;3747;48.628;9.058;2022-08-19T04:00:35;34.17;;;26.67;;
7410;SDS011;3747;48.628;9.058;2022-08-19T04:03:02;31.00;;;26.27;;
7410;SDS011;3747;48.628;9.058;2022-08-19T04:05:29;31.27;;;26.20;;
7410;SDS011;3747;48.628;9.058;2022-08-19T04:07:56;35.03;;;26.87;;
7410;SDS011;3747;48.628;9.058;2022-08-19T04:10:23;31.57;;;26.67;;
7410;SDS011;3747;48.628;9.058;2022-08-19T04:12:50;32.17;;;26.03;;
7410;SDS011;3747;48.628;9.058;2022-08-19T04:15:18;30.40;;;25.53;;
7410;SDS011;3747;48.628;9.058;2022-08-19T04:17:45;34.67;;;27.00;;
7410;SDS011;3747;48.628;9.058;2022-08-19T04:20:12;33.70;;;27.83;;
7410;SDS011;3747;48.628;9.058;2022-08-19T04:22:39;33.80;;;28.20;;
7410;SDS011;3747;48.628;9.058;2022-08-19T04:25:06;32.93;;;26.50;;
7410;SDS011;3747;48.628;9.058;2022-08-19T04:27:33;36.97;;;28.77;;
7410;SDS011;3747;48.628;9.058;2022-08-19T04:30:00;34.67;;;27.20;;
7410;SDS011;3747;48.628;9.058;2022-08-19T04:32:28;36.67;;;28.87;;
7410;SDS011;3747;48.628;9.058;2022-08-19T04:34:56;36.87;;;28.40;;
7410;SDS011;3747;48.628;9.058;2022-08-19T04:37:23;35.07;;;28.90;;
7410;SDS011;3747;48.628;9.058;2022-08-19T04:39:51;35.43;;;27.27;;
7410;SDS011;3747;48.628;9.058;2022-08-19T04:42:36;36.93;;;28.77;;
7410;SDS011;3747;48.628;9.058;2022-08-19T04:45:06;34.50;;;27.77;;
7410;SDS011;3747;48.628;9.058;2022-08-19T04:47:37;37.83;;;29.67;;
7410;SDS011;3747;48.628;9.058;2022-08-19T04:50:04;36.63;;;29.33;;
7410;SDS011;3747;48.628;9.058;2022-08-19T04:52:32;38.83;;;28.90;;
7410;SDS011;3747;48.628;9.058;2022-08-19T04:54:59;38.03;;;27.87;;
7410;SDS011;3747;48.628;9.058;2022-08-19T04:57:26;36.13;;;28.50;;
7410;SDS011;3747;48.628;9.058;2022-08-19T04:59:53;38.57;;;28.83;;
7410;SDS011;3747;48.628;9.058;2022-08-19T05:02:21;35.90;;;29.00;;
7410;SDS011;3747;48.628;9.058;2022-08-19T05:04:55;36.13;;;29.23;;
7410;SDS011;3747;48.628;9.058;2022-08-19T05:07:23;37.40;;;29.03;;
7410;SDS011;3747;48.628;9.058;2022-08-19T05:09:50;34.77;;;29.20;;
7410;SDS011;3747;48.628;9.058;2022-08-19T05:12:16;34.63;;;29.03;;
7410;SDS011;3747;48.628;9.058;2022-08-19T05:14:44;38.17;;;28.73;;
7410;SDS011;3747;48.628;9.058;2022-08-19T05:17:12;38.50;;;29.93;;
7410;SDS011;3747;48.628;9.058;2022-08-19T05:19:39;32.70;;;27.70;;
7410;SDS011;3747;48.628;9.058;2022-08-19T05:22:24;35.27;;;29.00;;
7410;SDS011;3747;48.628;9.058;2022-08-19T05:25:01;35.03;;;28.10;;
7410;SDS011;3747;48.628;9.058;2022-08-19T05:27:30;32.17;;;27.90;;
7410;SDS011;3747;48.628;9.058;2022-08-19T05:29:57;39.70;;;30.17;;
7410;SDS011;3747;48.628;9.058;2022-08-19T05:32:24;35.77;;;27.80;;
7410;SDS011;3747;48.628;9.058;2022-08-19T05:34:51;36.30;;;27.63;;
7410;SDS011;3747;48.628;9.058;2022-08-19T05:37:17;37.63;;;28.87;;
7410;SDS011;3747;48.628;9.058;2022-08-19T05:39:45;38.30;;;29.10;;
7410;SDS011;3747;48.628;9.058;2022-08-19T05:42:14;33.13;;;27.67;;
7410;SDS011;3747;48.628;9.058;2022-08-19T05:44:42;34.57;;;27.83;;
7410;SDS011;3747;48.628;9.058;2022-08-19T05:47:10;39.77;;;29.97;;
7410;SDS011;3747;48.628;9.058;2022-08-19T05:49:38;36.03;;;29.50;;
7410;SDS011;3747;48.628;9.058;2022-08-19T05:52:05;31.73;;;26.80;;
7410;SDS011;3747;48.628;9.058;2022-08-19T05:54:34;35.70;;;28.33;;
7410;SDS011;3747;48.628;9.058;2022-08-19T05:57:03;32.83;;;27.63;;
7410;SDS011;3747;48.628;9.058;2022-08-19T05:59:30;32.23;;;26.70;;
7410;SDS011;3747;48.628;9.058;2022-08-19T06:01:56;32.80;;;26.50;;
7410;SDS011;3747;48.628;9.058;2022-08-19T06:04:25;38.73;;;29.27;;
7410;SDS011;3747;48.628;9.058;2022-08-19T06:06:52;33.83;;;27.77;;
7410;SDS011;3747;48.628;9.058;2022-08-19T06:09:19;34.77;;;27.30;;
7410;SDS011;3747;48.628;9.058;2022-08-19T06:11:48;33.97;;;27.20;;
7410;SDS011;3747;48.628;9.058;2022-08-19T06:14:21;34.20;;;27.60;;
7410;SDS011;3747;48.628;9.058;2022-08-19T06:16:50;30.60;;;26.03;;
7410;SDS011;3747;48.628;9.058;2022-08-19T06:19:17;33.13;;;26.40;;
7410;SDS011;3747;48.628;9.058;2022-08-19T06:21:47;33.60;;;25.60;;
7410;SDS011;3747;48.628;9.058;2022-08-19T06:24:16;35.17;;;26.10;;
7410;SDS011;3747;48.628;9.058;2022-08-19T06:26:46;36.47;;;28.47;;
7410;SDS011;3747;48.628;9.058;2022-08-19T06:29:14;30.27;;;25.97;;
7410;SDS011;3747;48.628;9.058;2022-08-19T06:31:44;33.83;;;27.10;;
7410;SDS011;3747;48.628;9.058;2022-08-19T06:34:14;31.07;;;26.10;;
7410;SDS011;3747;48.628;9.058;2022-08-19T06:36:42;31.77;;;26.57;;
7410;SDS011;3747;48.628;9.058;2022-08-19T06:39:10;33.87;;;27.50;;
7410;SDS011;3747;48.628;9.058;2022-08-19T06:41:40;36.33;;;27.63;;
7410;SDS011;3747;48.628;9.058;2022-08-19T06:44:09;34.30;;;28.40;;
7410;SDS011;3747;48.628;9.058;2022-08-19T06:46:37;31.27;;;25.93;;
7410;SDS011;3747;48.628;9.058;2022-08-19T06:49:05;31.93;;;26.23;;
7410;SDS011;3747;48.628;9.058;2022-08-19T06:51:36;32.90;;;27.63;;
7410;SDS011;3747;48.628;9.058;2022-08-19T06:54:04;30.60;;;26.50;;
7410;SDS011;3747;48.628;9.058;2022-08-19T06:56:31;32.93;;;27.23;;
7410;SDS011;3747;48.628;9.058;2022-08-19T06:58:59;32.70;;;25.90;;
7410;SDS011;3747;48.628;9.058;2022-08-19T07:01:27;30.70;;;25.90;;
7410;SDS011;3747;48.628;9.058;2022-08-19T07:03:54;31.40;;;25.20;;
7410;SDS011;3747;48.628;9.058;2022-08-19T07:06:22;30.80;;;25.70;;
7410;SDS011;3747;48.628;9.058;2022-08-19T07:08:49;29.33;;;25.77;;
7410;SDS011;3747;48.628;9.058;2022-08-19T07:11:17;31.63;;;25.67;;
7410;SDS011;3747;48.628;9.058;2022-08-19T07:13:45;31.37;;;25.00;;
7410;SDS011;3747;48.628;9.058;2022-08-19T07:16:14;29.90;;;25.47;;
7410;SDS011;3747;48.628;9.058;2022-08-19T07:18:44;28.67;;;25.10;;
7410;SDS011;3747;48.628;9.058;2022-08-19T07:21:11;28.83;;;24.47;;
7410;SDS011;3747;48.628;9.058;2022-08-19T07:23:41;29.40;;;24.10;;
7410;SDS011;3747;48.628;9.058;2022-08-19T07:26:09;28.73;;;23.17;;
7410;SDS011;3747;48.628;9.058;2022-08-19T07:28:39;26.47;;;23.53;;
7410;SDS011;3747;48.628;9.058;2022-08-19T07:31:09;28.47;;;22.93;;
7410;SDS011;3747;48.628;9.058;2022-08-19T07:33:36;25.43;;;22.10;;
7410;SDS011;3747;48.628;9.058;2022-08-19T07:36:03;27.50;;;22.90;;
7410;SDS011;3747;48.628;9.058;2022-08-19T07:38:31;24.73;;;22.03;;
7410;SDS011;3747;48.628;9.058;2022-08-19T07:41:00;27.13;;;22.57;;
7410;SDS011;3747;48.628;9.058;2022-08-19T07:43:27;28.40;;;23.13;;
7410;SDS011;3747;48.628;9.058;2022-08-19T07:45:54;28.70;;;23.20;;
7410;SDS011;3747;48.628;9.058;2022-08-19T07:48:22;31.00;;;21.77;;
7410;SDS011;3747;48.628;9.058;2022-08-19T07:50:50;26.50;;;23.07;;
7410;SDS011;3747;48.628;9.058;2022-08-19T07:53:17;31.90;;;24.47;;
7410;SDS011;3747;48.628;9.058;2022-08-19T07:55:44;29.93;;;24.03;;
7410;SDS011;3747;48.628;9.058;2022-08-19T07:58:13;32.23;;;24.80;;
7410;SDS011;3747;48.628;9.058;2022-08-19T08:00:42;27.17;;;22.97;;
7410;SDS011;3747;48.628;9.058;2022-08-19T08:03:10;27.53;;;23.03;;
7410;SDS011;3747;48.628;9.058;2022-08-19T08:05:37;29.97;;;23.90;;
7410;SDS011;3747;48.628;9.058;2022-08-19T08:08:21;28.97;;;24.80;;
7410;SDS011;3747;48.628;9.058;2022-08-19T08:11:02;28.53;;;23.33;;
7410;SDS011;3747;48.628;9.058;2022-08-19T08:13:30;26.43;;;22.27;;
7410;SDS011;3747;48.628;9.058;2022-08-19T08:15:57;26.00;;;22.93;;
7410;SDS011;3747;48.628;9.058;2022-08-19T08:18:24;27.93;;;22.57;;
7410;SDS011;3747;48.628;9.058;2022-08-19T08:20:51;27.70;;;22.40;;
7410;SDS011;3747;48.628;9.058;2022-08-19T08:23:18;29.67;;;23.93;;
7410;SDS011;3747;48.628;9.058;2022-08-19T08:25:47;26.70;;;22.70;;
7410;SDS011;3747;48.628;9.058;2022-08-19T08:28:15;27.43;;;22.43;;
7410;SDS011;3747;48.628;9.058;2022-08-19T08:30:43;28.63;;;21.23;;
7410;SDS011;3747;48.628;9.058;2022-08-19T08:33:12;24.53;;;21.57;;
7410;SDS011;3747;48.628;9.058;2022-08-19T08:35:40;29.00;;;22.27;;
7410;SDS011;3747;48.628;9.058;2022-08-19T08:38:07;26.73;;;22.63;;
7410;SDS011;3747;48.628;9.058;2022-08-19T08:40:38;24.73;;;21.47;;
7410;SDS011;3747;48.628;9.058;2022-08-19T08:43:11;25.37;;;22.77;;
7410;SDS011;3747;48.628;9.058;2022-08-19T08:45:49;27.70;;;22.53;;
7410;SDS011;3747;48.628;9.058;2022-08-19T08:48:20;29.77;;;24.20;;
7410;SDS011;3747;48.628;9.058;2022-08-19T08:50:50;31.27;;;25.63;;
7410;SDS011;3747;48.628;9.058;2022-08-19T08:53:19;30.83;;;24.97;;
7410;SDS011;3747;48.628;9.058;2022-08-19T08:55:47;32.87;;;24.17;;
7410;SDS011;3747;48.628;9.058;2022-08-19T08:58:15;34.87;;;26.93;;
7410;SDS011;3747;48.628;9.058;2022-08-19T09:00:48;33.80;;;26.90;;
7410;SDS011;3747;48.628;9.058;2022-08-19T09:03:17;36.50;;;28.27;;
7410;SDS011;3747;48.628;9.058;2022-08-19T09:05:47;33.20;;;28.27;;
7410;SDS011;3747;48.628;9.058;2022-08-19T09:08:23;36.07;;;29.67;;
7410;SDS011;3747;48.628;9.058;2022-08-19T09:11:08;34.37;;;27.70;;
7410;SDS011;3747;48.628;9.058;2022-08-19T09:16:28;34.67;;;29.00;;
7410;SDS011;3747;48.628;9.058;2022-08-19T09:18:57;36.97;;;29.27;;
7410;SDS011;3747;48.628;9.058;2022-08-19T09:21:27;33.87;;;28.53;;
7410;SDS011;3747;48.628;9.058;2022-08-19T09:23:53;32.73;;;27.67;;
7410;SDS011;3747;48.628;9.058;2022-08-19T09:26:21;38.07;;;28.90;;
7410;SDS011;3747;48.628;9.058;2022-08-19T09:28:49;31.80;;;27.53;;
7410;SDS011;3747;48.628;9.058;2022-08-19T09:31:20;32.00;;;27.30;;
7410;SDS011;3747;48.628;9.058;2022-08-19T09:33:49;34.00;;;26.40;;
7410;SDS011;3747;48.628;9.058;2022-08-19T09:36:18;34.90;;;27.50;;
7410;SDS011;3747;48.628;9.058;2022-08-19T09:38:47;29.87;;;26.27;;
7410;SDS011;3747;48.628;9.058;2022-08-19T09:41:15;35.43;;;27.60;;
7410;SDS011;3747;48.628;9.058;2022-08-19T09:43:43;31.60;;;26.17;;
7410;SDS011;3747;48.628;9.058;2022-08-19T09:46:12;33.30;;;27.27;;
7410;SDS011;3747;48.628;9.058;2022-08-19T09:48:41;38.33;;;28.67;;
7410;SDS011;3747;48.628;9.058;2022-08-19T09:51:11;33.47;;;27.63;;
7410;SDS011;3747;48.628;9.058;2022-08-19T09:53:41;31.00;;;26.27;;
7410;SDS011;3747;48.628;9.058;2022-08-19T09:56:09;31.03;;;27.00;;
7410;SDS011;3747;48.628;9.058;2022-08-19T09:58:37;33.50;;;26.57;;
7410;SDS011;3747;48.628;9.058;2022-08-19T10:01:05;32.37;;;26.63;;
7410;SDS011;3747;48.628;9.058;2022-08-19T10:03:34;30.50;;;25.70;;
7410;SDS011;3747;48.628;9.058;2022-08-19T10:06:02;31.77;;;26.23;;
7410;SDS011;3747;48.628;9.058;2022-08-19T10:08:32;35.93;;;26.43;;
7410;SDS011;3747;48.628;9.058;2022-08-19T10:11:02;30.53;;;26.23;;
7410;SDS011;3747;48.628;9.058;2022-08-19T10:13:30;29.60;;;26.43;;
7410;SDS011;3747;48.628;9.058;2022-08-19T10:16:02;30.00;;;24.57;;
7410;SDS011;3747;48.628;9.058;2022-08-19T10:18:30;29.00;;;25.90;;
7410;SDS011;3747;48.628;9.058;2022-08-19T10:21:02;30.67;;;25.30;;
7410;SDS011;3747;48.628;9.058;2022-08-19T10:23:34;30.30;;;25.13;;
7410;SDS011;3747;48.628;9.058;2022-08-19T10:26:02;31.33;;;27.43;;
7410;SDS011;3747;48.628;9.058;2022-08-19T10:28:31;29.93;;;25.70;;
7410;SDS011;3747;48.628;9.058;2022-08-19T10:30:58;27.40;;;24.47;;
7410;SDS011;3747;48.628;9.058;2022-08-19T10:33:31;30.80;;;27.20;;
7410;SDS011;3747;48.628;9.058;2022-08-19T10:35:58;29.93;;;26.53;;
7410;SDS011;3747;48.628;9.058;2022-08-19T10:38:26;33.53;;;26.10;;
7410;SDS011;3747;48.628;9.058;2022-08-19T10:40:55;28.43;;;24.17;;
7410;SDS011;3747;48.628;9.058;2022-08-19T10:43:21;31.83;;;25.90;;
7410;SDS011;3747;48.628;9.058;2022-08-19T10:45:51;32.63;;;26.97;;
7410;SDS011;3747;48.628;9.058;2022-08-19T10:48:20;32.20;;;26.70;;
7410;SDS011;3747;48.628;9.058;2022-08-19T10:50:47;29.30;;;26.03;;
7410;SDS011;3747;48.628;9.058;2022-08-19T10:53:31;33.57;;;25.47;;
7410;SDS011;3747;48.628;9.058;2022-08-19T10:55:59;28.27;;;23.70;;
7410;SDS011;3747;48.628;9.058;2022-08-19T10:58:43;24.20;;;21.57;;
7410;SDS011;3747;48.628;9.058;2022-08-19T11:01:10;24.63;;;22.10;;
7410;SDS011;3747;48.628;9.058;2022-08-19T11:03:37;25.07;;;22.23;;
7410;SDS011;3747;48.628;9.058;2022-08-19T11:06:04;21.20;;;18.80;;
7410;SDS011;3747;48.628;9.058;2022-08-19T11:08:32;20.03;;;18.10;;
7410;SDS011;3747;48.628;9.058;2022-08-19T11:11:04;21.10;;;18.90;;
7410;SDS011;3747;48.628;9.058;2022-08-19T11:13:32;19.03;;;16.93;;
7410;SDS011;3747;48.628;9.058;2022-08-19T11:16:03;20.23;;;17.40;;
7410;SDS011;3747;48.628;9.058;2022-08-19T11:18:31;21.37;;;17.73;;
7410;SDS011;3747;48.628;9.058;2022-08-19T11:21:04;19.17;;;15.53;;
7410;SDS011;3747;48.628;9.058;2022-08-19T11:23:32;17.90;;;16.00;;
7410;SDS011;3747;48.628;9.058;2022-08-19T11:25:59;18.37;;;16.40;;
7410;SDS011;3747;48.628;9.058;2022-08-19T11:28:28;18.00;;;16.10;;
7410;SDS011;3747;48.628;9.058;2022-08-19T11:30:55;17.37;;;15.50;;
7410;SDS011;3747;48.628;9.058;2022-08-19T11:33:21;17.90;;;16.00;;
7410;SDS011;3747;48.628;9.058;2022-08-19T11:35:48;20.17;;;17.40;;
7410;SDS011;3747;48.628;9.058;2022-08-19T11:38:15;19.07;;;17.17;;
7410;SDS011;3747;48.628;9.058;2022-08-19T11:40:43;18.53;;;16.57;;
7410;SDS011;3747;48.628;9.058;2022-08-19T11:43:10;21.07;;;18.67;;
7410;SDS011;3747;48.628;9.058;2022-08-19T11:45:38;20.70;;;18.53;;
7410;SDS011;3747;48.628;9.058;2022-08-19T11:48:04;20.33;;;18.20;;
7410;SDS011;3747;48.628;9.058;2022-08-19T11:50:31;20.90;;;18.70;;
7410;SDS011;3747;48.628;9.058;2022-08-19T11:52:58;19.17;;;17.27;;
7410;SDS011;3747;48.628;9.058;2022-08-19T11:55:25;17.07;;;15.47;;
7410;SDS011;3747;48.628;9.058;2022-08-19T11:57:51;16.63;;;14.87;;
7410;SDS011;3747;48.628;9.058;2022-08-19T12:00:18;16.00;;;14.60;;
7410;SDS011;3747;48.628;9.058;2022-08-19T12:02:46;15.13;;;13.63;;
7410;SDS011;3747;48.628;9.058;2022-08-19T12:05:13;19.27;;;17.20;;
7410;SDS011;3747;48.628;9.058;2022-08-19T12:07:40;17.20;;;15.50;;
7410;SDS011;3747;48.628;9.058;2022-08-19T12:10:08;16.83;;;14.70;;
7410;SDS011;3747;48.628;9.058;2022-08-19T12:12:35;14.63;;;13.23;;
7410;SDS011;3747;48.628;9.058;2022-08-19T12:15:08;13.40;;;12.03;;
7410;SDS011;3747;48.628;9.058;2022-08-19T12:17:36;13.47;;;12.13;;
7410;SDS011;3747;48.628;9.058;2022-08-19T12:20:04;13.83;;;11.63;;
7410;SDS011;3747;48.628;9.058;2022-08-19T12:22:33;12.20;;;11.10;;
7410;SDS011;3747;48.628;9.058;2022-08-19T12:25:00;13.07;;;11.80;;
7410;SDS011;3747;48.628;9.058;2022-08-19T12:27:27;12.97;;;11.63;;
7410;SDS011;3747;48.628;9.058;2022-08-19T12:29:54;12.77;;;11.57;;
7410;SDS011;3747;48.628;9.058;2022-08-19T12:32:20;12.27;;;11.27;;
7410;SDS011;3747;48.628;9.058;2022-08-19T12:34:49;12.23;;;10.93;;
7410;SDS011;3747;48.628;9.058;2022-08-19T12:37:17;12.07;;;10.97;;
7410;SDS011;3747;48.628;9.058;2022-08-19T12:39:44;11.70;;;10.60;;
7410;SDS011;3747;48.628;9.058;2022-08-19T12:42:11;11.53;;;10.50;;
7410;SDS011;3747;48.628;9.058;2022-08-19T12:44:40;10.60;;;9.70;;
7410;SDS011;3747;48.628;9.058;2022-08-19T12:47:09;11.00;;;10.03;;
7410;SDS011;3747;48.628;9.058;2022-08-19T12:49:39;11.43;;;10.33;;
7410;SDS011;3747;48.628;9.058;2022-08-19T12:52:07;10.60;;;9.50;;
7410;SDS011;3747;48.628;9.058;2022-08-19T12:54:36;12.67;;;9.77;;
7410;SDS011;3747;48.628;9.058;2022-08-19T12:57:05;11.10;;;9.30;;
7410;SDS011;3747;48.628;9.058;2022-08-19T12:59:33;12.77;;;11.27;;
7410;SDS011;3747;48.628;9.058;2022-08-19T13:02:01;14.87;;;13.47;;
7410;SDS011;3747;48.628;9.058;2022-08-19T13:04:29;16.63;;;15.13;;
7410;SDS011;3747;48.628;9.058;2022-08-19T13:06:56;15.50;;;13.90;;
7410;SDS011;3747;48.628;9.058;2022-08-19T13:09:23;16.40;;;14.87;;
7410;SDS011;3747;48.628;9.058;2022-08-19T13:11:51;16.93;;;15.33;;
7410;SDS011;3747;48.628;9.058;2022-08-19T13:14:18;16.80;;;15.17;;
7410;SDS011;3747;48.628;9.058;2022-08-19T13:16:44;16.57;;;14.70;;
7410;SDS011;3747;48.628;9.058;2022-08-19T13:19:11;17.53;;;15.87;;
7410;SDS011;3747;48.628;9.058;2022-08-19T13:21:38;22.13;;;19.57;;
7410;SDS011;3747;48.628;9.058;2022-08-19T13:24:05;24.37;;;21.77;;
7410;SDS011;3747;48.628;9.058;2022-08-19T13:26:32;27.13;;;24.23;;
7410;SDS011;3747;48.628;9.058;2022-08-19T13:29:00;29.47;;;24.73;;
7410;SDS011;3747;48.628;9.058;2022-08-19T13:31:44;31.10;;;27.80;;
7410;SDS011;3747;48.628;9.058;2022-08-19T13:34:29;29.30;;;26.33;;
7410;SDS011;3747;48.628;9.058;2022-08-19T13:36:58;30.47;;;26.27;;
7410;SDS011;3747;48.628;9.058;2022-08-19T13:39:27;29.70;;;26.50;;
7410;SDS011;3747;48.628;9.058;2022-08-19T13:41:55;30.87;;;27.57;;
7410;SDS011;3747;48.628;9.058;2022-08-19T13:44:23;29.83;;;26.47;;
7410;SDS011;3747;48.628;9.058;2022-08-19T13:46:51;31.60;;;26.90;;
7410;SDS011;3747;48.628;9.058;2022-08-19T13:49:18;32.13;;;28.63;;
7410;SDS011;3747;48.628;9.058;2022-08-19T13:51:45;31.37;;;27.87;;
7410;SDS011;3747;48.628;9.058;2022-08-19T13:54:12;34.90;;;30.27;;
7410;SDS011;3747;48.628;9.058;2022-08-19T13:56:42;32.33;;;28.10;;
7410;SDS011;3747;48.628;9.058;2022-08-19T13:59:09;31.70;;;26.90;;
7410;SDS011;3747;48.628;9.058;2022-08-19T14:01:38;31.10;;;27.37;;
7410;SDS011;3747;48.628;9.058;2022-08-19T14:04:05;32.77;;;29.17;;
7410;SDS011;3747;48.628;9.058;2022-08-19T14:06:32;31.73;;;28.20;;
7410;SDS011;3747;48.628;9.058;2022-08-19T14:08:59;30.80;;;26.47;;
7410;SDS011;3747;48.628;9.058;2022-08-19T14:11:26;29.87;;;26.67;;
7410;SDS011;3747;48.628;9.058;2022-08-19T14:13:53;29.30;;;25.57;;
7410;SDS011;3747;48.628;9.058;2022-08-19T14:16:20;28.47;;;25.33;;
7410;SDS011;3747;48.628;9.058;2022-08-19T14:18:48;27.27;;;23.90;;
7410;SDS011;3747;48.628;9.058;2022-08-19T14:21:16;28.07;;;25.03;;
7410;SDS011;3747;48.628;9.058;2022-08-19T14:23:45;27.53;;;24.57;;
7410;SDS011;3747;48.628;9.058;2022-08-19T14:26:13;29.27;;;26.23;;
7410;SDS011;3747;48.628;9.058;2022-08-19T14:28:41;29.27;;;26.30;;
7410;SDS011;3747;48.628;9.058;2022-08-19T14:31:09;29.57;;;26.37;;
7410;SDS011;3747;48.628;9.058;2022-08-19T14:33:37;27.57;;;24.63;;
7410;SDS011;3747;48.628;9.058;2022-08-19T14:36:05;31.30;;;28.20;;
7410;SDS011;3747;48.628;9.058;2022-08-19T14:38:32;27.93;;;25.07;;
7410;SDS011;3747;48.628;9.058;2022-08-19T14:41:11;26.93;;;24.13;;
7410;SDS011;3747;48.628;9.058;2022-08-19T14:43:41;26.23;;;23.53;;
7410;SDS011;3747;48.628;9.058;2022-08-19T14:46:11;26.70;;;23.87;;
7410;SDS011;3747;48.628;9.058;2022-08-19T14:48:39;26.93;;;24.13;;
7410;SDS011;3747;48.628;9.058;2022-08-19T14:51:07;26.10;;;23.50;;
7410;SDS011;3747;48.628;9.058;2022-08-19T14:53:34;26.13;;;23.47;;
7410;SDS011;3747;48.628;9.058;2022-08-19T14:56:06;26.10;;;23.30;;
7410;SDS011;3747;48.628;9.058;2022-08-19T14:58:33;27.20;;;24.07;;